Rochford, South Dakota
Current Conditions -  °F | °C
As of 5:15 AM on Saturday 20 Dec 2014 (Local Time) from KSPF Reporting Station
Overcast Overcast  
Wind Chill: 32°   Ceiling: 6000
Heat Index: 36°   Visibility: 10mi
Dew Point: 23°   Wind: 5mph
Humidity: 60%   Direction: 280°W
Pressure: 29.91"   Gusts: NA
Location:  44.12°N, 103.72°W
Report Text: KSPF 201215Z AUTO 28004KT 10SM BKN060 OVC075 02/M05 A2991 RMK AO2
Loading
Personal Weather Stations






























Interactive Weather Map New forecast layout! Learn more

10-Day Weather Forecast

Advertisements
Track Severe Weather on mobile